Time;durP1;ratioP1;P1;durP2;ratioP2;P2;SDS_P1;SDS_P2;PMS_P1;PMS_P2;Temp;Humidity;BMP_temperature;BMP_pressure;BME280_temperature;BME280_humidity;BME280_pressure;Samples;Min_cycle;Max_cycle;Signal;HPM_P1;HPM_P2
2022/03/11 00:02:14;;;;;;;6.20;3.72;;;;;;;-3.97;47.96;101554.44;6347036;28;20461;-68
2022/03/11 00:05:15;;;;;;;5.20;3.20;;;;;;;-3.98;48.56;101562.91;6346901;28;20084;-67
2022/03/11 00:08:16;;;;;;;6.28;3.17;;;;;;;-3.95;48.61;101559.59;6345797;28;20051;-68
2022/03/11 00:11:17;;;;;;;11.90;4.63;;;;;;;-3.98;48.86;101564.59;6347003;28;20043;-67
2022/03/11 00:14:18;;;;;;;9.77;4.28;;;;;;;-4.01;48.94;101569.66;6346812;28;20039;-67
2022/03/11 00:17:19;;;;;;;7.57;3.42;;;;;;;-4.06;48.06;101566.97;6346696;28;20044;-67
2022/03/11 00:20:20;;;;;;;6.28;3.13;;;;;;;-3.94;48.29;101574.03;6345354;28;20464;-71
2022/03/11 00:23:21;;;;;;;6.77;3.47;;;;;;;-4.02;48.47;101566.22;6345326;28;20040;-70
2022/03/11 00:26:22;;;;;;;6.15;2.85;;;;;;;-4.00;47.71;101567.09;6345168;28;20287;-70
2022/03/11 00:29:23;;;;;;;8.98;4.45;;;;;;;-4.07;48.31;101566.09;6345286;28;20052;-71
2022/03/11 00:32:24;;;;;;;9.50;3.80;;;;;;;-4.08;48.55;101555.88;6345028;28;20051;-71
2022/03/11 00:35:25;;;;;;;6.30;3.22;;;;;;;-4.13;48.57;101555.78;6345329;28;20044;-70
2022/03/11 00:38:26;;;;;;;7.85;4.38;;;;;;;-4.18;48.71;101562.47;6327981;28;20056;-71
2022/03/11 00:41:26;;;;;;;7.00;3.63;;;;;;;-4.12;48.89;101559.16;6328068;28;20536;-71
2022/03/11 00:44:29;;;;;;;6.15;3.58;;;;;;;-4.15;48.85;101566.75;6327899;28;20044;-71
2022/03/11 00:47:30;;;;;;;;;;;;;;;-4.18;48.95;101559.91;6345966;28;20122;-71
2022/03/11 00:50:31;;;;;;;4.72;3.15;;;;;;;-4.23;49.47;101561.47;6345786;28;20279;-71
2022/03/11 00:53:32;;;;;;;8.43;4.05;;;;;;;-4.27;50.14;101557.13;6345999;28;20039;-71
2022/03/11 00:56:33;;;;;;;8.57;3.97;;;;;;;-4.12;48.61;101560.06;6344992;28;20142;-71
2022/03/11 00:59:34;;;;;;;11.15;4.15;;;;;;;-4.13;48.99;101560.88;6327824;28;20052;-70
2022/03/11 01:02:39;;;;;;;10.13;4.28;;;;;;;-4.18;49.05;101565.00;6344491;28;20055;-71
2022/03/11 01:05:39;;;;;;;6.15;3.50;;;;;;;-4.28;49.47;101561.38;6344540;28;20044;-70
2022/03/11 01:08:40;;;;;;;9.05;3.90;;;;;;;-4.26;49.88;101562.28;6344610;28;20074;-71
2022/03/11 01:11:41;;;;;;;6.60;3.83;;;;;;;-4.34;49.69;101557.81;6344403;28;20071;-71
2022/03/11 01:14:42;;;;;;;7.60;3.80;;;;;;;-4.48;49.93;101547.28;6327876;28;20619;-71
2022/03/11 01:17:43;;;;;;;6.28;3.53;;;;;;;-4.63;49.91;101547.78;6310667;28;20100;-71
2022/03/11 01:20:44;;;;;;;8.90;3.97;;;;;;;-4.59;50.36;101553.78;6344473;28;20031;-71
2022/03/11 01:23:45;;;;;;;10.50;4.07;;;;;;;-4.63;50.12;101557.97;6344235;28;20035;-71
2022/03/11 01:26:46;;;;;;;5.72;3.15;;;;;;;-4.68;50.97;101560.38;6344437;28;20040;-71
2022/03/11 01:29:46;;;;;;;7.95;3.53;;;;;;;-4.69;50.25;101556.13;6345597;28;20063;-71
2022/03/11 01:32:47;;;;;;;5.45;2.95;;;;;;;-4.71;50.64;101555.22;6344151;28;20036;-71
2022/03/11 01:35:48;;;;;;;6.80;3.90;;;;;;;-4.72;51.67;101556.03;6344336;28;20046;-71
2022/03/11 01:38:49;;;;;;;6.78;3.53;;;;;;;-4.66;50.38;101556.19;6345320;28;20464;-71
2022/03/11 01:41:50;;;;;;;13.10;4.18;;;;;;;-4.61;51.15;101560.53;6345351;28;20054;-71
2022/03/11 01:44:52;;;;;;;8.93;4.47;;;;;;;-4.72;51.65;101566.22;6345272;28;20392;-71
2022/03/11 01:47:53;;;;;;;7.60;3.80;;;;;;;-4.71;50.93;101569.66;6327678;28;20295;-71
2022/03/11 01:50:54;;;;;;;7.65;3.42;;;;;;;-4.74;51.21;101569.56;6343704;28;20055;-71
2022/03/11 01:53:55;;;;;;;7.10;3.90;;;;;;;-4.67;51.00;101567.22;6345319;28;20547;-71
2022/03/11 01:56:57;;;;;;;8.95;4.53;;;;;;;-4.74;50.55;101565.31;6345604;28;20090;-71
2022/03/11 01:59:58;;;;;;;10.23;4.35;;;;;;;-4.83;50.80;101579.50;6348542;28;20036;-71
2022/03/11 02:02:58;;;;;;;10.48;3.70;;;;;;;-4.79;51.93;101576.22;6348612;28;20532;-71
2022/03/11 02:06:04;;;;;;;6.05;3.63;;;;;;;-4.81;51.02;101562.59;6349819;28;20040;-71
2022/03/11 02:09:06;;;;;;;8.73;3.95;;;;;;;-4.86;51.04;101565.88;6349855;28;20514;-71
2022/03/11 02:12:07;;;;;;;9.82;4.18;;;;;;;-4.93;51.50;101568.22;6348490;28;20058;-71
2022/03/11 02:15:09;;;;;;;6.88;2.92;;;;;;;-4.88;51.15;101569.19;6348482;28;20039;-70
2022/03/11 02:18:10;;;;;;;4.95;3.03;;;;;;;-4.96;51.43;101568.13;6331465;28;20108;-71
2022/03/11 02:21:12;;;;;;;8.65;3.78;;;;;;;-4.96;51.06;101563.91;6348347;28;20063;-68
2022/03/11 02:24:14;;;;;;;8.38;4.25;;;;;;;-4.96;51.77;101566.47;6349403;28;20040;-67
2022/03/11 02:27:15;;;;;;;5.65;2.95;;;;;;;-4.98;50.93;101565.56;6348270;28;20035;-67
2022/03/11 02:30:19;;;;;;;7.25;3.55;;;;;;;-4.93;51.53;101565.66;6348233;28;20513;-68
2022/03/11 02:33:19;;;;;;;8.20;4.22;;;;;;;-5.06;51.21;101565.34;6349852;28;20502;-67
2022/03/11 02:36:20;;;;;;;7.05;3.65;;;;;;;-5.09;51.17;101570.34;6349174;28;20042;-68
2022/03/11 02:39:21;;;;;;;6.47;4.05;;;;;;;-5.12;51.74;101566.88;6349090;28;20039;-67
2022/03/11 02:42:22;;;;;;;9.65;4.25;;;;;;;-5.13;51.29;101567.66;6348926;28;20050;-67
2022/03/11 02:45:23;;;;;;;12.25;4.47;;;;;;;-5.17;51.27;101565.84;6348917;28;20560;-68
2022/03/11 02:48:24;;;;;;;6.35;3.47;;;;;;;-5.12;51.14;101559.22;6347883;28;20039;-68
2022/03/11 02:51:25;;;;;;;9.98;3.53;;;;;;;-5.19;51.05;101570.03;6347312;28;20083;-67
2022/03/11 02:54:26;;;;;;;4.50;3.58;;;;;;;-5.33;51.93;101560.38;6347322;28;20130;-68
2022/03/11 02:57:27;;;;;;;12.45;4.10;;;;;;;-5.20;52.18;101563.25;6347484;28;20043;-68
2022/03/11 03:00:27;;;;;;;8.43;3.85;;;;;;;-5.15;52.84;101569.31;6348667;28;20047;-67
2022/03/11 03:03:28;;;;;;;6.57;3.92;;;;;;;-5.11;51.76;101568.56;6347207;28;20064;-68
2022/03/11 03:06:29;;;;;;;12.38;4.13;;;;;;;-5.14;51.69;101571.06;6330226;28;20499;-69
2022/03/11 03:09:30;;;;;;;7.63;3.85;;;;;;;-5.09;52.18;101585.59;6330106;28;20050;-68
2022/03/11 03:12:31;;;;;;;8.90;4.45;;;;;;;-5.17;51.61;101576.03;6347719;28;20043;-67
2022/03/11 03:15:32;;;;;;;9.38;3.95;;;;;;;-5.16;52.15;101580.31;6346952;28;20138;-68
2022/03/11 03:18:33;;;;;;;12.48;4.47;;;;;;;-5.26;51.94;101581.75;6348425;28;20038;-67
2022/03/11 03:21:34;;;;;;;10.07;4.63;;;;;;;-5.43;52.61;101581.28;6348115;28;20046;-67
2022/03/11 03:24:35;;;;;;;7.55;3.83;;;;;;;-5.38;52.43;101574.63;6346592;28;20032;-67
2022/03/11 03:27:36;;;;;;;12.43;4.20;;;;;;;-5.49;52.37;101574.31;6329879;28;20047;-68
2022/03/11 03:30:37;;;;;;;8.48;3.95;;;;;;;-5.44;51.75;101574.44;6348060;28;20028;-68
2022/03/11 03:33:38;;;;;;;10.70;5.10;;;;;;;-5.38;52.44;101584.78;6347648;28;20108;-68
2022/03/11 03:36:38;;;;;;;3.53;2.33;;;;;;;-5.44;52.00;101581.22;6346585;28;20073;-67
2022/03/11 03:39:41;;;;;;;7.25;3.65;;;;;;;-5.47;52.22;101582.84;6346462;28;20114;-67
2022/03/11 03:42:48;;;;;;;11.48;4.88;;;;;;;-5.59;52.77;101587.59;6380805;27;20048;-68
2022/03/11 03:45:49;;;;;;;5.13;2.40;;;;;;;-5.63;53.03;101583.22;6346199;28;20043;-68
2022/03/11 03:48:49;;;;;;;9.85;3.80;;;;;;;-5.64;53.10;101591.69;6329360;28;20047;-67
2022/03/11 03:51:51;;;;;;;8.50;3.78;;;;;;;-5.64;53.43;101583.16;6345889;28;20498;-67
2022/03/11 03:54:52;;;;;;;5.85;3.53;;;;;;;-5.70;52.77;101592.34;6347149;28;20050;-67
2022/03/11 03:57:52;;;;;;;3.53;2.17;;;;;;;-5.76;53.17;101593.88;6347160;28;20040;-67
2022/03/11 04:00:53;;;;;;;7.35;4.00;;;;;;;-5.70;52.62;101582.19;6347120;28;20119;-67
2022/03/11 04:03:54;;;;;;;7.70;2.90;;;;;;;-5.68;53.38;101582.25;6346950;28;20395;-67
2022/03/11 04:06:55;;;;;;;5.53;3.60;;;;;;;-5.71;52.60;101583.00;6346957;28;20040;-68
2022/03/11 04:09:56;;;;;;;7.18;3.92;;;;;;;-5.67;52.70;101592.44;6345792;28;20035;-68
2022/03/11 04:12:57;;;;;;;8.38;3.75;;;;;;;-5.65;52.84;101591.63;6345465;28;20043;-68
2022/03/11 04:15:58;;;;;;;13.95;4.07;;;;;;;-5.62;53.02;101584.97;6346917;28;20543;-67
2022/03/11 04:18:59;;;;;;;5.00;2.53;;;;;;;-5.73;52.26;101586.31;6345467;28;20488;-67
2022/03/11 04:22:00;;;;;;;10.52;4.70;;;;;;;-5.74;52.70;101592.22;6345593;28;20051;-67
2022/03/11 04:25:01;;;;;;;6.28;3.53;;;;;;;-5.76;52.41;101587.09;6328336;28;20081;-68
2022/03/11 04:28:02;;;;;;;8.68;3.40;;;;;;;-5.87;52.93;101589.31;6328309;28;20452;-67
2022/03/11 04:31:10;;;;;;;5.63;2.65;;;;;;;-5.85;52.92;101596.97;6346587;28;20491;-68
2022/03/11 04:34:10;;;;;;;3.45;2.08;;;;;;;-5.79;53.04;101604.78;6346224;28;20046;-67
2022/03/11 04:37:11;;;;;;;12.60;3.92;;;;;;;-5.86;53.53;101600.34;6345122;28;20039;-69
2022/03/11 04:40:12;;;;;;;8.40;4.45;;;;;;;-5.84;53.37;101603.78;6328072;28;20071;-68
2022/03/11 04:43:13;;;;;;;9.98;4.68;;;;;;;-5.83;52.53;101602.09;6344986;28;20134;-67
2022/03/11 04:46:14;;;;;;;7.95;2.83;;;;;;;-5.93;52.62;101603.50;6345131;28;20045;-68
2022/03/11 04:49:15;;;;;;;5.18;3.28;;;;;;;-5.90;53.52;101606.16;6346132;28;20040;-67
2022/03/11 04:52:16;;;;;;;10.23;4.28;;;;;;;-5.90;52.95;101606.16;6345809;28;20051;-68
2022/03/11 04:55:17;;;;;;;8.52;2.53;;;;;;;-5.93;52.76;101606.91;6344708;28;20055;-68
2022/03/11 04:58:18;;;;;;;11.63;5.18;;;;;;;-5.96;52.79;101603.44;6345946;28;20044;-67
2022/03/11 05:01:19;;;;;;;10.00;4.28;;;;;;;-6.02;53.46;101596.47;6346483;28;20097;-68
2022/03/11 05:04:20;;;;;;;10.93;3.95;;;;;;;-5.89;53.54;101615.47;6344597;28;20451;-68
2022/03/11 05:07:20;;;;;;;9.52;4.80;;;;;;;-6.10;53.96;101615.72;6378826;27;20051;-68
2022/03/11 05:10:22;;;;;;;11.93;3.05;;;;;;;-6.08;53.86;101609.00;6327627;28;20075;-68
2022/03/11 05:13:23;;;;;;;15.98;3.97;;;;;;;-6.03;53.67;101615.09;6327526;28;20479;-67
2022/03/11 05:16:24;;;;;;;7.43;3.63;;;;;;;-5.87;52.91;101621.47;6310941;28;20047;-67
2022/03/11 05:19:25;;;;;;;5.68;2.75;;;;;;;-5.92;53.64;101613.72;6344487;28;20046;-68
2022/03/11 05:22:26;;;;;;;3.67;2.22;;;;;;;-6.01;53.08;101612.59;6345837;28;20039;-67
2022/03/11 05:25:27;;;;;;;6.38;3.67;;;;;;;-5.87;53.48;101608.75;6327360;28;20044;-67
2022/03/11 05:28:28;;;;;;;6.28;3.00;;;;;;;-5.91;53.04;101618.00;6344355;28;20173;-68
2022/03/11 05:31:29;;;;;;;5.18;2.90;;;;;;;-5.78;52.38;101620.91;6345575;28;20072;-67
2022/03/11 05:34:29;;;;;;;7.35;3.95;;;;;;;-5.65;51.99;101627.25;6348123;28;20449;-68
2022/03/11 05:37:30;;;;;;;5.72;3.10;;;;;;;-5.59;52.73;101633.38;6349360;28;20048;-68
2022/03/11 05:40:31;;;;;;;6.97;2.53;;;;;;;-5.56;52.34;101638.56;6350491;28;20039;-69
2022/03/11 05:43:32;;;;;;;4.70;2.22;;;;;;;-5.44;51.58;101634.66;6349166;28;20042;-68
2022/03/11 05:46:33;;;;;;;3.78;3.08;;;;;;;-5.45;51.52;101638.88;6332045;28;20548;-68
2022/03/11 05:49:34;;;;;;;8.23;2.90;;;;;;;-5.35;50.29;101635.78;6350284;28;20039;-67
2022/03/11 05:52:37;;;;;;;7.60;4.30;;;;;;;-5.26;50.07;101633.50;6349942;28;20062;-67
2022/03/11 05:55:37;;;;;;;;;;;;;;;-5.03;49.76;101638.38;6350559;28;20412;-68
2022/03/11 05:58:38;;;;;;;5.75;3.45;;;;;;;-4.99;50.64;101630.00;6348961;28;19968;-68
2022/03/11 06:01:39;;;;;;;8.65;4.13;;;;;;;-4.82;49.24;101639.78;6348833;28;20043;-68
2022/03/11 06:04:40;;;;;;;11.52;4.22;;;;;;;-4.64;49.18;101647.06;6348607;28;20048;-68
2022/03/11 06:07:41;;;;;;;8.93;4.47;;;;;;;-4.65;49.77;101651.31;6331936;28;20051;-68
2022/03/11 06:10:42;;;;;;;6.75;3.00;;;;;;;-4.61;48.51;101654.78;6349923;28;20066;-68
2022/03/11 06:13:43;;;;;;;4.43;2.72;;;;;;;-4.48;48.71;101649.22;6331742;28;20368;-68
2022/03/11 06:16:44;;;;;;;11.15;4.47;;;;;;;-4.25;47.43;101655.75;6349586;28;20036;-68
2022/03/11 06:19:45;;;;;;;7.70;4.07;;;;;;;-4.20;48.21;101658.44;6349911;28;20032;-68
2022/03/11 06:22:50;;;;;;;4.10;2.75;;;;;;;-4.26;47.42;101653.19;6349577;28;20495;-68
2022/03/11 06:25:51;;;;;;;8.07;3.13;;;;;;;-4.22;46.78;101659.19;6349302;28;20047;-69
2022/03/11 06:28:52;;;;;;;11.68;3.28;;;;;;;-4.20;47.00;101665.19;6348061;28;20043;-68
2022/03/11 06:31:53;;;;;;;5.90;3.10;;;;;;;-4.05;46.54;101668.13;6331166;28;20039;-68
2022/03/11 06:34:54;;;;;;;7.78;3.20;;;;;;;-4.07;47.05;101673.19;6349035;28;20043;-69
2022/03/11 06:37:55;;;;;;;3.83;2.15;;;;;;;-3.93;45.94;101665.88;6347877;28;20043;-68
2022/03/11 06:40:56;;;;;;;6.35;3.05;;;;;;;-3.83;46.67;101661.84;6349014;28;20449;-68
2022/03/11 06:43:57;;;;;;;10.73;4.00;;;;;;;-3.60;46.44;101661.53;6348889;28;20188;-68
2022/03/11 06:46:58;;;;;;;9.68;3.63;;;;;;;-3.47;46.51;101661.00;6347567;28;20039;-68
2022/03/11 06:49:59;;;;;;;7.78;3.40;;;;;;;-3.52;46.10;101663.44;6347855;28;20089;-68
2022/03/11 06:53:00;;;;;;;4.60;3.03;;;;;;;-3.58;45.99;101663.31;6347362;28;20062;-68
2022/03/11 06:56:01;;;;;;;7.75;3.95;;;;;;;-3.54;46.26;101657.44;6348618;28;20376;-69
2022/03/11 06:59:04;;;;;;;8.80;3.95;;;;;;;-3.37;45.82;101664.63;6347464;28;20092;-69
2022/03/11 07:02:05;;;;;;;4.90;2.92;;;;;;;-3.27;45.55;101667.38;6364520;27;20089;-68
2022/03/11 07:05:07;;;;;;;10.75;3.88;;;;;;;-3.27;45.81;101664.84;6348383;28;20531;-68
2022/03/11 07:08:10;;;;;;;13.45;4.50;;;;;;;-2.95;45.13;101666.34;6347221;28;20043;-68
2022/03/11 07:11:11;;;;;;;7.40;3.45;;;;;;;-2.90;44.50;101672.41;6330503;28;20044;-68
2022/03/11 07:14:12;;;;;;;6.38;2.95;;;;;;;-2.77;44.09;101669.25;6330085;28;20126;-68
2022/03/11 07:17:13;;;;;;;5.65;2.78;;;;;;;-2.62;43.94;101676.34;6348293;28;20055;-68
2022/03/11 07:20:14;;;;;;;6.97;3.63;;;;;;;-2.42;43.53;101670.75;6348007;28;20036;-68
2022/03/11 07:23:16;;;;;;;17.90;3.42;;;;;;;-2.37;43.11;101664.88;6346902;28;20044;-69
2022/03/11 07:26:17;;;;;;;5.93;2.83;;;;;;;-2.24;42.54;101661.72;6347961;28;20050;-68
2022/03/11 07:29:18;;;;;;;5.43;2.60;;;;;;;-2.24;41.99;101659.16;6347912;28;20480;-68
2022/03/11 07:32:19;;;;;;;4.50;2.78;;;;;;;-2.17;41.87;101655.00;6348180;28;20046;-68
2022/03/11 07:35:20;;;;;;;6.05;2.28;;;;;;;-2.12;42.06;101653.41;6347602;28;20047;-69
2022/03/11 07:38:21;;;;;;;9.32;4.53;;;;;;;-1.79;41.48;101654.78;6346450;28;20035;-68
2022/03/11 07:41:21;;;;;;;5.70;3.05;;;;;;;-1.85;40.97;101655.53;6347601;28;20472;-72
2022/03/11 07:44:22;;;;;;;9.27;4.40;;;;;;;-1.74;40.85;101654.84;6346282;28;20040;-72
2022/03/11 07:47:23;;;;;;;12.05;4.65;;;;;;;-1.60;41.17;101647.38;6347286;28;20036;-72
2022/03/11 07:50:24;;;;;;;6.85;3.83;;;;;;;-1.58;39.90;101648.25;6346355;28;20054;-72
2022/03/11 07:53:25;;;;;;;8.13;3.78;;;;;;;-1.40;39.48;101650.19;6345938;28;20411;-72
2022/03/11 07:56:26;;;;;;;5.53;3.17;;;;;;;-1.22;38.96;101647.88;6347322;28;20043;-72
2022/03/11 07:59:31;;;;;;;8.13;4.20;;;;;;;-0.98;39.26;101643.91;6312171;28;20529;-72
2022/03/11 08:02:32;;;;;;;8.88;4.32;;;;;;;-0.76;38.51;101645.88;6329606;28;20040;-72
2022/03/11 08:05:33;;;;;;;5.25;2.45;;;;;;;-0.87;38.56;101650.88;6345808;28;20096;-72
2022/03/11 08:08:36;;;;;;;11.10;3.70;;;;;;;-0.72;38.18;101649.31;6346910;28;20043;-72
2022/03/11 08:11:37;;;;;;;6.82;3.45;;;;;;;-1.06;39.18;101649.78;6345651;28;20055;-71
2022/03/11 08:14:37;;;;;;;6.50;3.08;;;;;;;-0.97;38.17;101645.63;6328790;28;20048;-72
2022/03/11 08:17:40;;;;;;;9.05;3.75;;;;;;;-0.68;37.81;101635.69;6345564;28;20545;-72
2022/03/11 08:20:41;;;;;;;5.63;2.97;;;;;;;-0.68;37.64;101641.69;6328818;28;20044;-71
2022/03/11 08:23:43;;;;;;;4.45;2.47;;;;;;;-0.66;37.25;101636.56;6345396;28;20372;-72
2022/03/11 08:26:44;;;;;;;6.78;2.90;;;;;;;-0.34;37.35;101639.47;6346623;28;20067;-72
2022/03/11 08:29:45;;;;;;;14.02;2.05;;;;;;;-0.50;36.30;101635.03;6345509;28;20063;-72
2022/03/11 08:32:48;;;;;;;7.13;3.65;;;;;;;-0.27;36.70;101627.53;6362710;27;20104;-72
2022/03/11 08:35:50;;;;;;;6.03;2.92;;;;;;;-0.10;35.82;101625.13;6346249;28;20097;-72
2022/03/11 08:38:51;;;;;;;7.65;3.60;;;;;;;0.01;36.72;101627.78;6346331;28;20488;-70
2022/03/11 08:41:52;;;;;;;11.25;4.32;;;;;;;0.27;35.19;101623.69;6346252;28;20071;-70
2022/03/11 08:44:52;;;;;;;6.68;2.70;;;;;;;0.16;34.96;101625.31;6345087;28;20391;-70
2022/03/11 08:47:53;;;;;;;6.95;3.75;;;;;;;0.49;34.99;101624.66;6344745;28;20043;-70
2022/03/11 08:50:55;;;;;;;5.00;2.63;;;;;;;0.75;34.46;101618.81;6346199;28;20130;-71
2022/03/11 08:53:55;;;;;;;6.07;3.08;;;;;;;0.68;33.49;101629.91;6344833;28;20047;-70
2022/03/11 08:56:56;;;;;;;5.47;2.80;;;;;;;0.64;33.64;101626.47;6345962;28;20062;-70
2022/03/11 08:59:57;;;;;;;8.68;3.58;;;;;;;0.73;33.65;101616.22;6346123;28;20035;-70
2022/03/11 09:02:58;;;;;;;7.57;3.38;;;;;;;1.00;32.43;101620.63;6344710;28;20044;-71
2022/03/11 09:05:59;;;;;;;7.07;3.65;;;;;;;1.05;33.77;101610.38;6344651;28;20044;-70
2022/03/11 09:08:59;;;;;;;6.68;3.42;;;;;;;1.07;33.08;101613.81;6343771;28;20458;-70
2022/03/11 09:12:02;;;;;;;8.25;3.97;;;;;;;1.60;33.73;101597.59;6345815;28;20048;-70
2022/03/11 09:15:04;;;;;;;9.20;2.70;;;;;;;1.72;31.70;101593.31;6346072;28;20491;-71
2022/03/11 09:18:06;;;;;;;7.10;3.55;;;;;;;1.19;32.79;101593.28;6345699;28;20466;-70
2022/03/11 09:21:07;;;;;;;5.50;3.40;;;;;;;1.33;32.65;101590.72;6344399;28;20040;-70
2022/03/11 09:24:09;;;;;;;6.32;3.33;;;;;;;1.67;30.73;101595.91;6345598;28;20039;-70
2022/03/11 09:27:11;;;;;;;8.13;3.57;;;;;;;1.55;31.21;101583.03;6344391;28;20040;-71
2022/03/11 09:30:13;;;;;;;7.32;3.58;;;;;;;2.15;31.16;101588.16;6344416;28;20123;-67
2022/03/11 09:33:13;;;;;;;8.05;4.07;;;;;;;2.43;29.61;101586.38;6345604;28;20098;-71
2022/03/11 09:36:15;;;;;;;6.53;2.88;;;;;;;2.01;29.48;101583.84;6345343;28;20039;-67
2022/03/11 09:39:16;;;;;;;8.52;3.40;;;;;;;2.46;29.46;101583.78;6327555;28;20040;-67
2022/03/11 09:42:17;;;;;;;6.68;3.05;;;;;;;2.75;27.67;101575.06;6344541;28;20058;-67
2022/03/11 09:45:19;;;;;;;13.05;3.83;;;;;;;2.70;28.01;101575.09;6344329;28;20043;-68
2022/03/11 09:48:21;;;;;;;;;;;;;;;2.68;27.63;101583.69;6345748;28;20071;-68
2022/03/11 09:51:22;;;;;;;8.05;3.03;;;;;;;2.40;27.67;101563.19;6344211;28;20431;-67
2022/03/11 09:54:23;;;;;;;8.18;2.58;;;;;;;2.58;27.33;101563.13;6344152;28;20487;-67
2022/03/11 09:57:27;;;;;;;5.37;2.73;;;;;;;2.81;27.55;101554.44;6345558;28;20043;-67
2022/03/11 10:00:28;;;;;;;9.30;3.47;;;;;;;2.77;28.02;101553.56;6327581;28;20047;-67
2022/03/11 10:03:30;;;;;;;5.35;2.70;;;;;;;2.60;26.83;101553.66;6327057;28;20067;-67
2022/03/11 10:06:39;;;;;;;3.78;2.40;;;;;;;3.38;24.23;101554.94;6327398;28;20043;-67
2022/03/11 10:09:40;;;;;;;4.15;2.47;;;;;;;3.40;24.27;101553.22;6345222;28;20043;-69
2022/03/11 10:12:43;;;;;;;7.50;3.05;;;;;;;3.44;25.46;101554.03;6327090;28;20032;-69
2022/03/11 10:15:44;;;;;;;6.65;2.55;;;;;;;3.30;25.02;101551.56;6345036;28;20069;-68
2022/03/11 10:18:58;;;;;;;5.43;2.72;;;;;;;3.43;25.04;101545.44;6345060;28;20040;-68
2022/03/11 10:22:00;;;;;;;4.35;2.22;;;;;;;3.51;24.47;101547.97;6349537;28;20165;-68
2022/03/11 10:25:24;;;;;;;4.38;2.67;;;;;;;3.79;22.82;101543.41;6382527;27;20055;-68
2022/03/11 10:28:27;;;;;;;8.75;2.78;;;;;;;3.95;23.61;101535.50;6349270;28;20044;-69
2022/03/11 10:31:39;;;;;;;8.63;2.58;;;;;;;4.22;23.18;101543.00;6348303;28;20042;-68
2022/03/11 10:34:40;;;;;;;7.00;3.30;;;;;;;4.16;23.88;101544.75;6349341;28;20047;-69
2022/03/11 10:37:55;;;;;;;4.50;2.50;;;;;;;3.86;23.49;101530.47;6348022;28;20043;-69
2022/03/11 10:40:58;;;;;;;6.78;3.35;;;;;;;3.97;22.50;101538.94;6347988;28;20452;-70
2022/03/11 10:44:04;;;;;;;5.78;2.92;;;;;;;4.16;21.07;101531.84;6347859;28;20039;-70
2022/03/11 10:47:29;;;;;;;6.68;2.40;;;;;;;4.44;20.91;101520.31;6348914;28;20036;-68
2022/03/11 10:50:36;;;;;;;4.97;2.70;;;;;;;4.21;21.84;101525.75;6348816;28;20425;-69
2022/03/11 10:53:39;;;;;;;5.65;2.83;;;;;;;4.09;21.62;101525.06;6347764;28;20035;-70
2022/03/11 10:56:43;;;;;;;5.95;2.80;;;;;;;4.55;22.83;101506.41;6347718;28;20040;-69
2022/03/11 10:59:44;;;;;;;5.73;3.17;;;;;;;4.59;22.42;101510.66;6348610;28;20372;-69
2022/03/11 11:02:45;;;;;;;5.43;2.78;;;;;;;4.51;21.73;101497.88;6347725;28;20035;-70
2022/03/11 11:05:48;;;;;;;5.55;2.28;;;;;;;4.72;21.50;101501.88;6330409;28;20403;-68
2022/03/11 11:08:48;;;;;;;7.35;2.80;;;;;;;4.87;20.99;101500.81;6347315;28;20048;-68
2022/03/11 11:11:51;;;;;;;7.15;2.70;;;;;;;5.06;20.70;101493.63;6348498;28;20040;-67
2022/03/11 11:14:52;;;;;;;5.07;2.65;;;;;;;5.14;20.86;101491.78;6347188;28;20044;-68
2022/03/11 11:17:53;;;;;;;6.45;2.97;;;;;;;5.24;21.07;101483.00;6347137;28;20046;-68
2022/03/11 11:20:56;;;;;;;10.02;3.05;;;;;;;5.29;20.03;101485.50;6347039;28;20067;-67
2022/03/11 11:23:57;;;;;;;7.15;3.00;;;;;;;5.32;20.80;101494.97;6346912;28;20044;-67
2022/03/11 11:26:59;;;;;;;7.07;2.45;;;;;;;5.20;20.17;101478.75;6346996;28;20040;-68
2022/03/11 11:30:01;;;;;;;4.95;2.47;;;;;;;4.85;19.29;101477.53;6348046;28;20041;-68
2022/03/11 11:33:02;;;;;;;5.50;2.80;;;;;;;4.98;19.60;101477.38;6380490;27;20039;-69
2022/03/11 11:36:03;;;;;;;3.15;1.75;;;;;;;4.93;19.56;101484.34;6347857;28;20050;-68
2022/03/11 11:39:07;;;;;;;6.32;2.65;;;;;;;4.85;19.65;101471.53;6346481;28;20120;-68
2022/03/11 11:42:13;;;;;;;5.13;2.58;;;;;;;4.88;19.90;101465.44;6346331;28;20059;-67
2022/03/11 11:45:15;;;;;;;6.97;3.00;;;;;;;4.94;20.08;101471.41;6347724;28;20050;-67
2022/03/11 11:48:31;;;;;;;6.38;2.80;;;;;;;5.70;20.51;101463.22;6346731;28;20124;-68
2022/03/11 11:51:32;;;;;;;5.47;2.63;;;;;;;5.73;19.81;101462.34;6346162;28;20088;-69
2022/03/11 11:54:35;;;;;;;5.47;2.05;;;;;;;5.58;20.30;101460.84;6347505;28;20043;-67
2022/03/11 11:57:36;;;;;;;3.42;2.08;;;;;;;5.62;19.32;101460.78;6347310;28;20051;-67
2022/03/11 12:00:38;;;;;;;2.55;1.58;;;;;;;5.34;17.49;101462.16;6347347;28;20100;-67
2022/03/11 12:03:49;;;;;;;5.18;2.08;;;;;;;5.13;18.57;101455.59;6345855;28;20048;-66
2022/03/11 12:06:55;;;;;;;3.50;2.20;;;;;;;4.90;18.14;101461.09;6347173;28;20040;-67
2022/03/11 12:10:00;;;;;;;3.38;1.95;;;;;;;5.50;18.68;101450.66;6346912;28;20429;-67
2022/03/11 12:13:02;;;;;;;;;;;;;;;5.43;18.77;101449.88;6347387;28;20051;-67
2022/03/11 12:16:16;;;;;;;5.72;1.90;;;;;;;5.03;17.88;101458.31;6345713;28;19926;-67
2022/03/11 12:19:36;;;;;;;7.40;2.30;;;;;;;4.99;18.21;101453.22;6345553;28;20044;-67
2022/03/11 12:22:37;;;;;;;5.88;2.55;;;;;;;5.55;18.50;101451.41;6345394;28;20039;-67
2022/03/11 12:25:48;;;;;;;3.35;1.83;;;;;;;5.12;17.81;101452.13;6345419;28;20036;-67
2022/03/11 12:28:49;;;;;;;7.65;2.33;;;;;;;5.30;18.89;101447.56;6345450;28;20039;-67
2022/03/11 12:31:50;;;;;;;5.35;2.63;;;;;;;5.12;19.00;101446.13;6345270;28;20506;-67
2022/03/11 12:34:52;;;;;;;6.47;2.60;;;;;;;5.45;19.08;101444.69;6346365;28;20087;-67
2022/03/11 12:37:54;;;;;;;;;;;;;;;5.38;18.51;101435.34;6328793;28;20046;-68
2022/03/11 12:41:01;;;;;;;4.45;2.40;;;;;;;5.54;19.79;101431.59;6346269;28;19919;-68
2022/03/11 12:44:02;;;;;;;5.72;2.55;;;;;;;5.62;18.47;101431.44;6345190;28;20104;-67
2022/03/11 12:47:03;;;;;;;5.82;2.83;;;;;;;5.75;19.06;101435.53;6346315;28;20181;-68
2022/03/11 12:50:08;;;;;;;5.65;2.60;;;;;;;5.92;18.39;101434.34;6344870;28;20043;-67
2022/03/11 12:53:11;;;;;;;7.60;3.03;;;;;;;6.05;18.23;101418.56;6344896;28;20131;-68
2022/03/11 12:56:13;;;;;;;5.63;2.50;;;;;;;5.73;18.91;101444.22;6344908;28;20122;-67
2022/03/11 12:59:13;;;;;;;5.78;2.50;;;;;;;5.94;18.38;101432.56;6345948;28;20065;-67
2022/03/11 13:02:15;;;;;;;4.13;2.55;;;;;;;5.99;18.87;101415.22;6344833;28;20065;-68
2022/03/11 13:05:27;;;;;;;5.70;2.63;;;;;;;5.48;17.54;101425.66;6327981;28;20388;-67
2022/03/11 13:08:29;;;;;;;3.83;1.95;;;;;;;5.12;18.86;101426.25;6345717;28;20525;-68
2022/03/11 13:11:30;;;;;;;4.40;2.15;;;;;;;5.64;18.06;101407.25;6344683;28;20040;-68
2022/03/11 13:14:31;;;;;;;2.95;1.75;;;;;;;5.48;17.59;101420.47;6344689;28;20043;-69
2022/03/11 13:17:40;;;;;;;3.60;2.15;;;;;;;5.40;18.35;101418.88;6344658;28;20122;-68
2022/03/11 13:21:11;;;;;;;6.65;2.95;;;;;;;5.01;18.35;101417.84;6327562;28;20051;-68
2022/03/11 13:24:12;;;;;;;5.20;2.78;;;;;;;4.63;18.55;101407.22;6344671;28;20126;-68
2022/03/11 13:27:18;;;;;;;4.32;2.38;;;;;;;5.22;18.82;101406.28;6344470;28;20485;-68
2022/03/11 13:30:35;;;;;;;7.43;2.60;;;;;;;5.35;17.96;101405.16;6345515;28;20542;-70
2022/03/11 13:33:36;;;;;;;5.68;2.58;;;;;;;5.47;18.13;101413.59;6345524;28;20391;-67
2022/03/11 13:36:43;;;;;;;6.50;2.70;;;;;;;5.16;18.42;101414.97;6344430;28;20066;-68
2022/03/11 13:39:44;;;;;;;6.68;2.80;;;;;;;5.11;17.75;101403.88;6344224;28;20447;-68
2022/03/11 13:43:02;;;;;;;5.95;3.03;;;;;;;5.33;18.37;101411.25;6345536;28;20046;-72
2022/03/11 13:46:04;;;;;;;5.05;2.80;;;;;;;5.44;18.16;101409.34;6345598;28;20047;-72
2022/03/11 13:49:10;;;;;;;5.65;2.97;;;;;;;5.56;17.33;101408.25;6344124;28;20044;-72
2022/03/11 13:52:16;;;;;;;5.60;2.95;;;;;;;5.96;17.86;101405.78;6345199;28;20071;-72
2022/03/11 13:55:19;;;;;;;4.03;2.25;;;;;;;5.38;17.60;101404.28;6347646;28;20066;-72
2022/03/11 13:58:25;;;;;;;4.32;2.50;;;;;;;5.51;18.53;101397.97;6348894;28;20039;-72
2022/03/11 14:01:36;;;;;;;5.95;3.08;;;;;;;5.22;18.47;101395.91;6350085;28;20039;-72
2022/03/11 14:04:37;;;;;;;6.00;2.85;;;;;;;5.17;18.45;101393.41;6349940;28;20089;-72
2022/03/11 14:07:46;;;;;;;6.43;2.55;;;;;;;5.33;18.05;101378.44;6348843;28;20038;-71
2022/03/11 14:10:47;;;;;;;4.40;2.58;;;;;;;5.29;18.58;101384.56;6366000;27;20062;-71
2022/03/11 14:13:48;;;;;;;7.15;3.30;;;;;;;5.25;18.64;101388.97;6348740;28;20051;-71